createdAt,value
2023-03-22T00:01:48.044Z,58.30
2023-03-22T00:04:16.332Z,60.75
2023-03-22T00:06:45.124Z,65.18
2023-03-22T00:09:13.493Z,63.05
2023-03-22T00:11:42.347Z,63.83
2023-03-22T00:14:10.830Z,67.65
2023-03-22T00:16:39.629Z,64.25
2023-03-22T00:19:07.932Z,73.32
2023-03-22T00:21:36.907Z,76.45
2023-03-22T00:24:05.523Z,66.93
2023-03-22T00:26:34.074Z,61.85
2023-03-22T00:29:02.302Z,70.57
2023-03-22T00:31:31.999Z,61.33
2023-03-22T00:34:00.440Z,66.28
2023-03-22T00:36:29.395Z,70.20
2023-03-22T00:38:57.745Z,67.43
2023-03-22T00:41:26.564Z,67.72
2023-03-22T00:46:40.901Z,66.70
2023-03-22T00:49:09.236Z,65.25
2023-03-22T00:51:37.966Z,62.30
2023-03-22T00:54:06.855Z,67.63
2023-03-22T00:56:37.672Z,60.00
2023-03-22T00:59:24.238Z,62.20
2023-03-22T01:01:53.163Z,63.35
2023-03-22T01:04:26.215Z,65.85
2023-03-22T01:07:02.124Z,61.72
2023-03-22T01:09:33.822Z,66.13
2023-03-22T01:14:31.941Z,59.63
2023-03-22T01:17:01.113Z,61.95
2023-03-22T01:19:29.891Z,60.22
2023-03-22T01:21:58.664Z,64.38
2023-03-22T01:24:27.368Z,64.13
2023-03-22T01:26:56.479Z,59.83
2023-03-22T01:29:25.697Z,61.92
2023-03-22T01:31:54.477Z,60.50
2023-03-22T01:34:23.127Z,62.92
2023-03-22T01:36:52.772Z,63.35
2023-03-22T01:39:21.742Z,63.72
2023-03-22T01:41:53.457Z,62.88
2023-03-22T01:44:23.307Z,65.88
2023-03-22T01:46:54.484Z,63.92
2023-03-22T01:49:29.731Z,63.20
2023-03-22T01:52:03.769Z,65.20
2023-03-22T01:54:52.779Z,67.70
2023-03-22T02:00:04.629Z,65.88
2023-03-22T02:02:49.056Z,64.75
2023-03-22T02:05:26.588Z,67.03
2023-03-22T02:07:59.270Z,68.15
2023-03-22T02:10:28.736Z,67.72
2023-03-22T02:13:48.146Z,71.78
2023-03-22T02:16:58.891Z,69.30
2023-03-22T02:19:52.642Z,65.00
2023-03-22T02:22:47.660Z,70.80
2023-03-22T02:26:00.230Z,63.72
2023-03-22T02:28:49.698Z,67.07
2023-03-22T02:31:43.966Z,67.60
2023-03-22T02:34:55.482Z,60.72
2023-03-22T02:38:01.822Z,63.42
2023-03-22T02:40:45.908Z,62.63
2023-03-22T02:43:31.374Z,58.80
2023-03-22T02:46:32.636Z,62.33
2023-03-22T02:49:27.043Z,62.08
2023-03-22T02:52:17.882Z,61.83
2023-03-22T02:55:19.034Z,66.17
2023-03-22T02:57:58.393Z,60.22
2023-03-22T03:00:29.028Z,66.18
2023-03-22T03:03:11.582Z,65.03
2023-03-22T03:05:43.675Z,67.80
2023-03-22T03:08:17.206Z,63.45
2023-03-22T03:10:47.553Z,64.75
2023-03-22T03:13:18.519Z,66.15
2023-03-22T03:15:57.491Z,62.75
2023-03-22T03:18:41.531Z,61.70
2023-03-22T03:21:30.349Z,62.95
2023-03-22T03:23:58.585Z,69.18
2023-03-22T03:26:53.076Z,61.58
2023-03-22T03:29:49.373Z,67.75
2023-03-22T03:32:27.264Z,66.45
2023-03-22T03:35:01.691Z,64.97
2023-03-22T03:37:49.598Z,67.25
2023-03-22T03:40:23.959Z,71.63
2023-03-22T03:42:55.434Z,71.25
2023-03-22T03:45:26.145Z,67.95
2023-03-22T03:47:59.023Z,67.70
2023-03-22T03:50:31.774Z,73.07
2023-03-22T03:53:01.643Z,68.40
2023-03-22T03:55:31.359Z,71.75
2023-03-22T03:58:01.184Z,70.50
2023-03-22T04:00:29.588Z,84.53
2023-03-22T04:03:18.393Z,79.65
2023-03-22T04:06:22.008Z,77.43
2023-03-22T04:08:56.764Z,72.47
2023-03-22T04:11:30.043Z,73.53
2023-03-22T04:14:02.363Z,74.38
2023-03-22T04:16:30.836Z,79.75
2023-03-22T04:19:00.069Z,74.38
2023-03-22T04:21:28.444Z,72.28
2023-03-22T04:24:02.493Z,75.25
2023-03-22T04:26:37.026Z,76.90
2023-03-22T04:29:26.332Z,74.70
2023-03-22T04:32:00.762Z,76.82
2023-03-22T04:34:39.468Z,77.90
2023-03-22T04:37:14.422Z,76.50
2023-03-22T04:39:50.735Z,78.38
2023-03-22T04:42:37.542Z,74.95
2023-03-22T04:45:15.059Z,75.45
2023-03-22T04:47:48.556Z,77.40
2023-03-22T04:50:18.108Z,84.70
2023-03-22T04:52:54.164Z,78.28
2023-03-22T04:55:23.504Z,73.93
2023-03-22T04:57:54.882Z,82.07
2023-03-22T05:00:26.394Z,81.57
2023-03-22T05:02:55.805Z,80.78
2023-03-22T05:05:56.461Z,79.80
2023-03-22T05:08:30.606Z,76.78
2023-03-22T05:11:30.885Z,78.80
2023-03-22T05:14:17.732Z,76.20
2023-03-22T05:16:46.471Z,114.32
2023-03-22T05:19:16.210Z,119.15
2023-03-22T05:21:49.646Z,83.63
2023-03-22T05:24:18.584Z,91.88
2023-03-22T05:26:54.029Z,101.80
2023-03-22T05:29:27.417Z,93.93
2023-03-22T05:32:08.265Z,92.15
2023-03-22T05:34:36.768Z,83.75
2023-03-22T05:37:25.515Z,87.20
2023-03-22T05:39:58.171Z,78.00
2023-03-22T05:42:38.200Z,91.53
2023-03-22T05:45:16.552Z,80.35
2023-03-22T05:47:50.147Z,74.07
2023-03-22T05:50:46.680Z,75.57
2023-03-22T05:53:15.808Z,75.65
2023-03-22T05:56:04.709Z,75.40
2023-03-22T05:58:36.367Z,81.38
2023-03-22T06:01:11.937Z,82.57
2023-03-22T06:04:01.582Z,79.57
2023-03-22T06:06:36.371Z,73.82
2023-03-22T06:09:17.555Z,78.60
2023-03-22T06:11:51.077Z,77.82
2023-03-22T06:14:19.957Z,73.70
2023-03-22T06:17:07.013Z,76.63
2023-03-22T06:19:35.999Z,73.13
2023-03-22T06:22:06.666Z,74.03
2023-03-22T06:24:37.934Z,74.65
2023-03-22T06:27:07.525Z,77.22
2023-03-22T06:29:38.186Z,73.68
2023-03-22T06:32:08.359Z,70.50
2023-03-22T06:34:37.204Z,73.53
2023-03-22T06:37:06.335Z,74.72
2023-03-22T06:39:39.068Z,76.50
2023-03-22T06:42:07.463Z,75.78
2023-03-22T06:44:36.622Z,71.93
2023-03-22T06:47:16.115Z,72.30
2023-03-22T06:49:51.846Z,71.32
2023-03-22T06:52:27.167Z,76.00
2023-03-22T06:54:57.153Z,69.82
2023-03-22T06:57:26.196Z,67.43
2023-03-22T06:59:54.931Z,70.30
2023-03-22T07:02:23.327Z,74.13
2023-03-22T07:05:15.547Z,71.15
2023-03-22T07:07:44.138Z,70.70
2023-03-22T07:10:13.345Z,71.93
2023-03-22T07:12:41.799Z,72.63
2023-03-22T07:15:14.335Z,66.00
2023-03-22T07:17:53.023Z,70.18
2023-03-22T07:20:22.097Z,71.13
2023-03-22T07:22:51.890Z,68.13
2023-03-22T07:25:23.406Z,64.53
2023-03-22T07:28:00.650Z,68.50
2023-03-22T07:30:30.059Z,69.35
2023-03-22T07:32:58.470Z,66.78
2023-03-22T07:35:27.621Z,65.68
2023-03-22T07:37:56.686Z,67.90
2023-03-22T07:40:32.116Z,62.83
2023-03-22T07:43:00.674Z,66.07
2023-03-22T07:46:04.562Z,59.75
2023-03-22T07:48:36.298Z,63.25
2023-03-22T07:51:40.107Z,54.78
2023-03-22T07:54:08.679Z,57.13
2023-03-22T07:56:37.408Z,55.53
2023-03-22T07:59:06.487Z,53.20
2023-03-22T08:01:35.801Z,47.65
2023-03-22T08:04:23.485Z,45.08
2023-03-22T08:07:00.154Z,47.25
2023-03-22T08:09:29.976Z,47.88
2023-03-22T08:11:59.004Z,45.90
2023-03-22T08:14:35.884Z,49.15
2023-03-22T08:17:07.318Z,49.58
2023-03-22T08:19:37.513Z,49.70
2023-03-22T08:22:08.977Z,49.28
2023-03-22T08:24:55.887Z,47.60
2023-03-22T08:27:31.705Z,53.38
2023-03-22T08:30:01.272Z,48.50
2023-03-22T08:32:29.981Z,48.42
2023-03-22T08:34:59.211Z,52.85
2023-03-22T08:37:28.120Z,49.17
2023-03-22T08:39:56.716Z,53.92
2023-03-22T08:42:41.550Z,50.63
2023-03-22T08:45:11.100Z,49.58
2023-03-22T08:47:49.394Z,48.30
2023-03-22T08:50:20.039Z,47.67
2023-03-22T08:52:56.565Z,46.95
2023-03-22T08:55:31.868Z,47.05
2023-03-22T08:58:14.114Z,48.72
2023-03-22T09:00:57.449Z,48.45
2023-03-22T09:42:46.801Z,39.08
2023-03-22T09:50:22.305Z,34.65
2023-03-22T09:52:54.493Z,34.28
2023-03-22T09:56:01.515Z,33.83
2023-03-22T09:58:41.541Z,29.95
2023-03-22T10:01:35.336Z,26.70
2023-03-22T10:04:21.657Z,27.35
2023-03-22T10:07:00.125Z,27.98
2023-03-22T10:09:37.083Z,26.80
2023-03-22T10:12:26.728Z,27.45
2023-03-22T10:15:16.374Z,23.13
2023-03-22T10:17:51.816Z,25.40
2023-03-22T10:20:39.005Z,29.15
2023-03-22T10:23:14.716Z,28.92
2023-03-22T10:25:44.398Z,30.05
2023-03-22T10:28:41.422Z,30.27
2023-03-22T10:31:22.257Z,29.35
2023-03-22T10:33:50.653Z,29.27
2023-03-22T10:36:22.451Z,27.85
2023-03-22T10:39:04.031Z,28.90
2023-03-22T10:41:34.744Z,28.50
2023-03-22T10:44:06.616Z,27.88
2023-03-22T10:46:41.773Z,26.20
2023-03-22T10:49:18.911Z,26.20
2023-03-22T10:51:51.287Z,29.15
2023-03-22T10:54:21.722Z,30.13
2023-03-22T10:56:50.331Z,26.67
2023-03-22T10:59:48.657Z,25.23
2023-03-22T11:02:29.926Z,27.63
2023-03-22T11:05:03.072Z,31.25
2023-03-22T11:07:39.222Z,25.83
2023-03-22T11:10:33.878Z,25.15
2023-03-22T11:13:11.953Z,23.85
2023-03-22T11:15:49.392Z,28.30
2023-03-22T11:18:19.129Z,26.73
2023-03-22T11:21:16.110Z,23.40
2023-03-22T11:24:04.634Z,25.40
2023-03-22T11:26:38.956Z,24.90
2023-03-22T11:29:18.197Z,24.85
2023-03-22T11:31:58.567Z,23.60
2023-03-22T11:34:31.024Z,22.90
2023-03-22T11:39:47.111Z,24.33
2023-03-22T11:42:21.300Z,22.85
2023-03-22T11:44:50.129Z,22.95
2023-03-22T11:47:18.792Z,22.52
2023-03-22T11:49:51.459Z,20.92
2023-03-22T11:52:23.829Z,20.88
2023-03-22T11:54:54.776Z,20.55
2023-03-22T11:57:30.417Z,21.95
2023-03-22T12:00:18.353Z,22.92
2023-03-22T12:03:01.986Z,20.80
2023-03-22T12:05:34.031Z,21.60
2023-03-22T12:08:44.722Z,19.67
2023-03-22T12:11:26.424Z,22.83
2023-03-22T12:13:57.805Z,19.63
2023-03-22T12:16:36.401Z,19.45
2023-03-22T12:19:19.949Z,19.60
2023-03-22T12:21:50.346Z,20.08
2023-03-22T12:24:31.375Z,19.48
2023-03-22T12:27:19.683Z,17.50
2023-03-22T12:30:45.999Z,19.25
2023-03-22T12:33:40.232Z,20.92
2023-03-22T12:36:22.360Z,21.63
2023-03-22T12:38:57.831Z,20.60
2023-03-22T12:41:39.598Z,19.13
2023-03-22T12:46:53.732Z,20.80
2023-03-22T12:49:40.696Z,20.80
2023-03-22T12:52:17.896Z,23.02
2023-03-22T12:54:49.539Z,18.13
2023-03-22T12:57:18.678Z,17.08
2023-03-22T12:59:52.449Z,19.15
2023-03-22T13:02:27.789Z,18.70
2023-03-22T13:05:07.165Z,18.48
2023-03-22T13:07:51.630Z,18.70
2023-03-22T13:10:30.222Z,15.77
2023-03-22T13:13:07.741Z,18.70
2023-03-22T13:15:42.650Z,16.90
2023-03-22T13:18:28.551Z,17.40
2023-03-22T13:21:16.530Z,17.65
2023-03-22T13:24:15.471Z,17.13
2023-03-22T13:26:47.399Z,17.55
2023-03-22T13:29:38.157Z,21.35
2023-03-22T13:32:30.930Z,20.42
2023-03-22T13:35:01.018Z,16.83
2023-03-22T13:37:35.935Z,18.20
2023-03-22T13:40:32.440Z,19.55
2023-03-22T13:43:11.032Z,20.55
2023-03-22T13:45:58.872Z,18.25
2023-03-22T13:48:49.492Z,16.98
2023-03-22T13:51:21.681Z,21.05
2023-03-22T13:54:18.488Z,18.83
2023-03-22T13:56:49.850Z,18.67
2023-03-22T13:59:27.871Z,17.63
2023-03-22T14:02:27.640Z,18.67
2023-03-22T14:05:02.028Z,17.98
2023-03-22T14:07:47.060Z,16.33
2023-03-22T14:10:44.144Z,19.27
2023-03-22T14:13:26.977Z,16.50
2023-03-22T14:16:12.437Z,16.95
2023-03-22T14:18:44.889Z,15.18
2023-03-22T14:21:18.194Z,18.02
